Time;durP1;ratioP1;P1;durP2;ratioP2;P2;SDS_P1;SDS_P2;PMS_P1;PMS_P2;Temp;Humidity;BMP_temperature;BMP_pressure;BME280_temperature;BME280_humidity;BME280_pressure;Samples;Min_cycle;Max_cycle;Signal;HPM_P1;HPM_P2
2024/01/23 00:02:30;;;;;;;13.38;3.25;;;15.10;73.30;;;;;;4203479;28;20156;-60
2024/01/23 00:05:11;;;;;;;10.85;2.40;;;15.10;73.50;;;;;;4203401;28;20058;-61
2024/01/23 00:07:52;;;;;;;20.48;2.88;;;15.10;73.60;;;;;;4203794;27;20051;-61
2024/01/23 00:10:33;;;;;;;8.30;1.95;;;15.20;73.50;;;;;;4204091;27;20058;-61
2024/01/23 00:13:15;;;;;;;10.88;2.30;;;15.20;73.20;;;;;;4204381;27;20079;-61
2024/01/23 00:15:57;;;;;;;9.73;2.88;;;15.30;73.00;;;;;;4190837;27;20104;-61
2024/01/23 00:18:38;;;;;;;11.88;2.67;;;15.30;73.00;;;;;;4186733;28;20097;-61
2024/01/23 00:21:20;;;;;;;8.63;2.72;;;15.30;72.60;;;;;;4187380;28;20055;-60
2024/01/23 00:24:01;;;;;;;12.63;2.28;;;15.30;72.50;;;;;;4202826;27;20124;-60
2024/01/23 00:26:41;;;;;;;17.65;3.15;;;15.30;72.70;;;;;;4213914;27;20063;-60
2024/01/23 00:29:22;;;;;;;9.77;2.40;;;15.30;72.60;;;;;;4220638;27;20418;-61
2024/01/23 00:32:06;;;;;;;18.83;2.70;;;15.40;72.80;;;;;;4203597;27;20067;-62
2024/01/23 00:34:47;;;;;;;11.93;2.88;;;15.40;72.40;;;;;;4202094;27;20589;-61
2024/01/23 00:37:28;;;;;;;12.30;3.30;;;15.40;72.10;;;;;;4186232;28;20185;-62
2024/01/23 00:40:12;;;;;;;16.85;3.10;;;15.50;71.80;;;;;;4186688;28;20060;-62
2024/01/23 00:42:53;;;;;;;12.23;2.47;;;15.60;71.60;;;;;;4202820;28;20100;-63
2024/01/23 00:45:34;;;;;;;11.75;2.60;;;15.60;71.30;;;;;;4189161;28;20059;-60
2024/01/23 00:48:16;;;;;;;15.85;2.88;;;15.60;71.00;;;;;;4220102;27;20051;-62
2024/01/23 00:50:57;;;;;;;12.98;2.65;;;15.70;70.90;;;;;;4220347;27;20181;-62
2024/01/23 00:53:39;;;;;;;15.02;2.95;;;15.60;70.40;;;;;;4218785;27;20054;-62
2024/01/23 00:56:20;;;;;;;11.48;2.67;;;15.60;70.60;;;;;;4203616;27;20179;-62
2024/01/23 00:59:01;;;;;;;15.40;3.67;;;15.70;70.50;;;;;;4203478;28;20154;-60
2024/01/23 01:01:42;;;;;;;17.15;3.35;;;15.70;70.40;;;;;;4189305;27;20059;-60
2024/01/23 01:04:24;;;;;;;9.32;2.10;;;15.70;70.40;;;;;;4186953;28;20067;-62
2024/01/23 01:07:05;;;;;;;9.40;2.60;;;15.80;70.40;;;;;;4187564;28;20406;-60
2024/01/23 01:09:46;;;;;;;17.33;2.50;;;15.80;70.10;;;;;;4203619;28;20066;-60
2024/01/23 01:12:27;;;;;;;12.32;2.90;;;15.80;70.00;;;;;;4202727;28;20119;-61
2024/01/23 01:15:09;;;;;;;10.23;3.08;;;15.80;69.70;;;;;;4218524;27;20418;-62
2024/01/23 01:17:50;;;;;;;9.20;2.60;;;15.90;69.50;;;;;;4203285;27;20109;-62
2024/01/23 01:20:32;;;;;;;15.05;2.65;;;15.90;69.30;;;;;;4203193;27;20093;-61
2024/01/23 01:23:13;;;;;;;13.95;3.45;;;15.90;69.30;;;;;;4206280;27;20478;-61
2024/01/23 01:25:54;;;;;;;11.18;3.33;;;15.90;69.50;;;;;;4215491;27;20088;-62
2024/01/23 01:28:35;;;;;;;13.30;2.95;;;15.90;69.20;;;;;;4223042;27;20055;-62
2024/01/23 01:31:17;;;;;;;8.73;2.28;;;15.90;69.60;;;;;;4223463;27;20454;-62
2024/01/23 01:33:58;;;;;;;12.90;3.08;;;15.90;69.70;;;;;;4203807;28;20177;-62
2024/01/23 01:36:40;;;;;;;11.55;2.78;;;16.00;69.30;;;;;;4220539;27;20690;-62
2024/01/23 01:39:21;;;;;;;10.75;2.55;;;16.10;69.00;;;;;;4208895;27;20201;-62
2024/01/23 01:42:02;;;;;;;11.55;3.25;;;16.10;68.40;;;;;;4222435;27;20051;-60
2024/01/23 01:44:43;;;;;;;14.95;2.63;;;16.10;68.30;;;;;;4222834;27;20463;-61
2024/01/23 01:47:25;;;;;;;10.80;2.58;;;16.10;68.50;;;;;;4222745;27;20131;-62
2024/01/23 01:50:07;;;;;;;12.70;2.20;;;16.10;69.30;;;;;;4222883;27;20058;-62
2024/01/23 01:52:49;;;;;;;;;;;16.10;68.70;;;;;;4221788;27;20424;-62
2024/01/23 01:55:30;;;;;;;17.83;2.65;;;16.20;68.90;;;;;;4210156;27;19930;-61
2024/01/23 01:58:14;;;;;;;15.15;3.05;;;16.20;68.60;;;;;;4222176;27;20122;-62
2024/01/23 02:00:55;;;;;;;11.20;2.80;;;16.30;68.40;;;;;;4222927;27;20047;-61
2024/01/23 02:03:37;;;;;;;14.18;2.88;;;16.40;68.30;;;;;;4222802;27;20066;-62
2024/01/23 02:06:18;;;;;;;11.43;3.15;;;16.40;67.80;;;;;;4210576;27;20067;-62
2024/01/23 02:09:00;;;;;;;8.23;2.80;;;16.40;67.70;;;;;;4205125;28;20051;-62
2024/01/23 02:11:55;;;;;;;19.17;2.78;;;16.40;67.60;;;;;;4204090;28;20047;-61
2024/01/23 02:14:39;;;;;;;13.55;3.30;;;16.40;67.30;;;;;;4204574;28;20055;-61
2024/01/23 02:17:20;;;;;;;9.40;2.90;;;16.40;67.50;;;;;;4205176;28;20058;-61
2024/01/23 02:20:01;;;;;;;14.70;2.95;;;16.50;67.60;;;;;;4205042;28;20177;-61
2024/01/23 02:22:42;;;;;;;14.48;2.95;;;16.40;67.50;;;;;;4205501;28;20174;-61
2024/01/23 02:25:24;;;;;;;11.63;3.15;;;16.40;67.30;;;;;;4206682;27;20058;-61
2024/01/23 02:28:05;;;;;;;13.38;3.50;;;16.40;67.40;;;;;;4188791;28;20067;-62
2024/01/23 02:30:46;;;;;;;13.82;2.63;;;16.40;67.30;;;;;;4203865;28;20059;-61
2024/01/23 02:33:27;;;;;;;10.52;2.83;;;16.40;67.30;;;;;;4213886;27;20042;-63
2024/01/23 02:36:09;;;;;;;14.38;2.70;;;16.40;67.40;;;;;;4212065;27;20101;-65
2024/01/23 02:38:50;;;;;;;13.65;2.88;;;16.40;67.50;;;;;;4219419;27;20111;-61
2024/01/23 02:41:32;;;;;;;12.20;3.55;;;16.50;67.40;;;;;;4222124;27;20051;-61
2024/01/23 02:44:16;;;;;;;12.65;2.90;;;16.50;67.10;;;;;;4221825;27;20054;-61
2024/01/23 02:46:57;;;;;;;14.48;3.25;;;16.60;66.70;;;;;;4188959;28;20056;-62
2024/01/23 02:49:38;;;;;;;14.10;2.67;;;16.60;66.60;;;;;;4188172;28;20249;-61
2024/01/23 02:52:19;;;;;;;17.70;3.30;;;16.60;66.60;;;;;;4204916;28;20533;-61
2024/01/23 02:55:00;;;;;;;;;;;16.70;66.40;;;;;;4205523;28;20059;-61
2024/01/23 02:57:44;;;;;;;18.23;2.88;;;16.70;66.60;;;;;;4204148;28;19930;-51
2024/01/23 03:00:25;;;;;;;12.80;3.00;;;16.70;66.60;;;;;;4203924;28;20051;-50
2024/01/23 03:03:06;;;;;;;12.17;3.40;;;16.70;66.40;;;;;;4204714;28;20066;-48
2024/01/23 03:05:48;;;;;;;11.75;3.22;;;16.70;66.20;;;;;;4209058;27;20112;-51
2024/01/23 03:08:29;;;;;;;13.98;3.78;;;16.60;66.10;;;;;;4204625;28;20505;-52
2024/01/23 03:11:10;;;;;;;19.45;4.05;;;16.60;66.30;;;;;;4204325;28;20063;-50
2024/01/23 03:13:52;;;;;;;12.05;3.05;;;16.60;66.20;;;;;;4204521;28;20390;-51
2024/01/23 03:16:33;;;;;;;20.08;3.42;;;16.60;66.10;;;;;;4215253;27;20055;-51
2024/01/23 03:19:15;;;;;;;12.25;2.65;;;16.70;66.10;;;;;;4221613;27;20054;-49
2024/01/23 03:21:56;;;;;;;12.25;2.55;;;16.70;66.00;;;;;;4221617;27;20055;-48
2024/01/23 03:24:38;;;;;;;15.65;3.58;;;16.70;65.90;;;;;;4219723;27;20050;-51
2024/01/23 03:27:19;;;;;;;12.95;2.75;;;16.60;66.30;;;;;;4204289;28;20129;-51
2024/01/23 03:30:01;;;;;;;17.55;4.20;;;16.70;66.10;;;;;;4204342;28;20136;-48
2024/01/23 03:32:42;;;;;;;12.65;2.92;;;16.60;65.90;;;;;;4204166;28;20467;-51
2024/01/23 03:35:24;;;;;;;14.07;3.53;;;16.70;66.90;;;;;;4205781;27;20406;-49
2024/01/23 03:38:05;;;;;;;11.80;2.58;;;16.70;65.90;;;;;;4220945;27;20059;-51
2024/01/23 03:40:46;;;;;;;16.98;3.72;;;16.70;66.70;;;;;;4220896;27;20108;-47
2024/01/23 03:43:27;;;;;;;17.52;3.67;;;16.60;65.60;;;;;;4214514;27;20051;-49
2024/01/23 03:46:09;;;;;;;13.15;3.35;;;16.60;65.60;;;;;;4210910;27;20410;-51
2024/01/23 03:48:50;;;;;;;17.40;3.58;;;16.60;65.90;;;;;;4220565;27;20046;-48
2024/01/23 03:51:31;;;;;;;17.20;3.53;;;16.60;66.10;;;;;;4220101;27;20062;-49
2024/01/23 03:54:12;;;;;;;17.27;3.47;;;16.70;66.00;;;;;;4220362;27;20051;-47
2024/01/23 03:56:53;;;;;;;15.98;3.55;;;16.70;65.90;;;;;;4217530;27;20710;-48
2024/01/23 03:59:34;;;;;;;12.27;3.42;;;16.70;65.70;;;;;;4209911;27;20058;-50
2024/01/23 04:02:17;;;;;;;18.25;3.47;;;16.70;65.70;;;;;;4237746;27;20050;-51
2024/01/23 04:04:57;;;;;;;12.20;3.13;;;16.60;65.70;;;;;;4236911;27;20045;-50
2024/01/23 04:07:39;;;;;;;12.90;3.38;;;16.70;65.40;;;;;;4203548;28;20067;-50
2024/01/23 04:10:20;;;;;;;12.07;2.60;;;16.70;65.40;;;;;;4202499;27;20058;-50
2024/01/23 04:13:02;;;;;;;18.40;4.53;;;16.70;65.40;;;;;;4204061;27;20518;-51
2024/01/23 04:15:43;;;;;;;16.38;3.47;;;16.80;65.50;;;;;;4206770;27;20529;-51
2024/01/23 04:18:25;;;;;;;19.00;4.03;;;16.70;65.20;;;;;;4208718;27;20055;-48
2024/01/23 04:21:07;;;;;;;17.85;3.60;;;16.70;65.30;;;;;;4207304;27;20517;-49
2024/01/23 04:23:47;;;;;;;21.70;4.80;;;16.60;65.40;;;;;;4220501;27;20395;-50
2024/01/23 04:26:28;;;;;;;13.27;3.22;;;16.60;65.40;;;;;;4208961;27;20063;-50
2024/01/23 04:29:09;;;;;;;13.27;4.30;;;16.60;65.40;;;;;;4203349;28;20050;-49
2024/01/23 04:31:50;;;;;;;17.52;3.58;;;16.60;65.40;;;;;;4203709;28;20457;-50
2024/01/23 04:34:32;;;;;;;22.00;3.40;;;16.50;65.60;;;;;;4204043;28;20052;-50
2024/01/23 04:37:14;;;;;;;17.15;3.40;;;16.50;66.00;;;;;;4203238;28;20101;-52
2024/01/23 04:39:58;;;;;;;17.00;3.30;;;16.50;66.10;;;;;;4187124;28;20079;-49
2024/01/23 04:42:39;;;;;;;11.27;3.05;;;16.50;66.10;;;;;;4186770;28;20483;-49
2024/01/23 04:45:20;;;;;;;18.35;4.10;;;16.40;66.80;;;;;;4203729;28;20055;-50
2024/01/23 04:48:02;;;;;;;17.08;4.28;;;16.40;65.90;;;;;;4202553;28;20047;-48
2024/01/23 04:50:44;;;;;;;16.13;3.83;;;16.30;65.90;;;;;;4203688;28;20060;-51
2024/01/23 04:53:27;;;;;;;20.70;3.67;;;16.30;66.10;;;;;;4203352;28;20152;-51
2024/01/23 04:56:08;;;;;;;12.82;3.15;;;16.30;66.40;;;;;;4203318;28;20066;-51
2024/01/23 04:58:49;;;;;;;12.70;3.75;;;16.30;66.60;;;;;;4206533;28;20394;-48
2024/01/23 05:01:30;;;;;;;12.75;2.65;;;16.30;66.60;;;;;;4206806;28;20059;-49
2024/01/23 05:04:11;;;;;;;17.23;4.00;;;16.30;66.50;;;;;;4207177;28;20098;-51
2024/01/23 05:06:53;;;;;;;15.82;3.70;;;16.30;66.30;;;;;;4206159;28;20494;-49
2024/01/23 05:09:34;;;;;;;20.27;3.42;;;16.40;66.10;;;;;;4206540;28;20616;-51
2024/01/23 05:12:15;;;;;;;19.02;4.40;;;16.30;66.80;;;;;;4206442;28;20390;-61
2024/01/23 05:14:57;;;;;;;15.32;3.47;;;16.30;66.00;;;;;;4206234;28;20055;-61
2024/01/23 05:17:40;;;;;;;19.95;4.28;;;16.30;66.20;;;;;;4206447;28;20181;-60
2024/01/23 05:20:21;;;;;;;15.00;3.50;;;16.20;66.10;;;;;;4206740;28;20051;-60
2024/01/23 05:23:04;;;;;;;20.80;3.80;;;16.20;67.10;;;;;;4206476;28;20051;-60
2024/01/23 05:25:45;;;;;;;20.50;4.05;;;16.10;66.30;;;;;;4206545;28;20112;-61
2024/01/23 05:28:26;;;;;;;19.45;3.58;;;16.10;66.60;;;;;;4204911;28;20055;-60
2024/01/23 05:31:07;;;;;;;24.63;4.38;;;16.20;66.90;;;;;;4206296;28;20063;-62
2024/01/23 05:33:48;;;;;;;22.83;5.63;;;16.30;66.80;;;;;;4207029;27;20066;-61
2024/01/23 05:36:29;;;;;;;16.60;4.00;;;16.40;66.30;;;;;;4206837;28;20055;-61
2024/01/23 05:39:12;;;;;;;16.33;3.85;;;16.50;65.90;;;;;;4206319;28;20081;-59
2024/01/23 05:41:53;;;;;;;20.48;3.55;;;16.60;65.70;;;;;;4205655;28;20054;-61
2024/01/23 05:44:34;;;;;;;25.23;4.70;;;16.70;65.40;;;;;;4209167;27;20050;-60
2024/01/23 05:47:15;;;;;;;22.95;4.38;;;16.70;65.30;;;;;;4222406;27;20050;-60
2024/01/23 05:49:56;;;;;;;15.45;3.25;;;16.70;65.20;;;;;;4222138;27;20146;-60
2024/01/23 05:52:37;;;;;;;17.70;3.65;;;16.70;64.80;;;;;;4221364;27;20042;-60
2024/01/23 05:55:19;;;;;;;29.60;4.40;;;16.80;64.60;;;;;;4216809;27;20415;-60
2024/01/23 05:58:00;;;;;;;25.98;4.55;;;16.80;64.10;;;;;;4220908;27;20088;-61
2024/01/23 06:00:41;;;;;;;17.75;3.78;;;16.80;65.60;;;;;;4223003;27;20513;-61
2024/01/23 06:03:22;;;;;;;18.05;3.67;;;16.80;65.40;;;;;;4223015;27;20055;-60
2024/01/23 06:06:04;;;;;;;20.35;4.45;;;16.90;64.30;;;;;;4205606;28;20104;-61
2024/01/23 06:08:45;;;;;;;;;;;16.90;64.20;;;;;;4221210;27;20178;-61
2024/01/23 06:11:27;;;;;;;23.08;4.43;;;17.00;64.30;;;;;;4221922;27;19930;-61
2024/01/23 06:14:08;;;;;;;17.00;4.35;;;17.10;64.10;;;;;;4220953;27;20055;-62
2024/01/23 06:16:49;;;;;;;;;;;17.10;64.00;;;;;;4205870;28;20187;-60
2024/01/23 06:19:30;;;;;;;22.63;4.60;;;17.10;63.70;;;;;;4205147;28;19930;-60
2024/01/23 06:22:11;;;;;;;21.20;4.55;;;17.10;64.00;;;;;;4192772;28;20059;-61
2024/01/23 06:25:02;;;;;;;22.30;4.85;;;17.10;63.90;;;;;;4215170;27;20123;-62
2024/01/23 06:27:45;;;;;;;25.08;4.55;;;17.20;63.50;;;;;;4218228;27;20066;-61
2024/01/23 06:30:26;;;;;;;19.23;3.97;;;17.20;63.50;;;;;;4203390;28;20506;-60
2024/01/23 06:33:06;;;;;;;20.88;4.68;;;17.20;63.60;;;;;;4203368;28;20050;-46
2024/01/23 06:35:48;;;;;;;20.85;4.95;;;17.10;63.70;;;;;;4188124;28;20056;-47
2024/01/23 06:38:29;;;;;;;18.08;3.97;;;17.00;63.70;;;;;;4204706;28;20055;-48
2024/01/23 06:41:10;;;;;;;29.67;4.88;;;17.00;63.90;;;;;;4204853;28;20063;-49
2024/01/23 06:43:53;;;;;;;18.23;4.70;;;17.00;64.20;;;;;;4206118;27;20510;-51
2024/01/23 06:46:33;;;;;;;25.80;5.28;;;17.00;64.20;;;;;;4204839;28;20059;-51
2024/01/23 06:49:14;;;;;;;20.92;4.75;;;17.00;64.10;;;;;;4204789;28;20059;-51
2024/01/23 06:51:56;;;;;;;23.80;4.32;;;17.00;64.30;;;;;;4203848;28;20070;-48
2024/01/23 06:54:36;;;;;;;19.30;5.43;;;17.00;64.70;;;;;;4205971;27;20075;-52
2024/01/23 06:57:17;;;;;;;19.45;4.65;;;17.00;64.60;;;;;;4204315;28;20051;-47
2024/01/23 07:00:00;;;;;;;18.52;4.30;;;17.10;64.50;;;;;;4209736;27;20081;-46
2024/01/23 07:02:41;;;;;;;22.48;4.50;;;17.10;64.50;;;;;;4221481;27;20185;-47
2024/01/23 07:05:22;;;;;;;22.85;4.55;;;17.10;64.40;;;;;;4204979;28;20055;-59
2024/01/23 07:08:04;;;;;;;19.70;4.40;;;17.10;64.30;;;;;;4205704;28;20352;-60
2024/01/23 07:10:45;;;;;;;17.17;4.90;;;17.10;64.10;;;;;;4222976;27;20051;-62
2024/01/23 07:13:25;;;;;;;18.63;5.07;;;17.10;64.30;;;;;;4189329;27;20457;-51
2024/01/23 07:16:08;;;;;;;34.05;6.85;;;17.00;64.40;;;;;;4187574;28;20206;-50
2024/01/23 07:18:49;;;;;;;18.85;4.10;;;17.00;64.50;;;;;;4186790;28;20051;-49
2024/01/23 07:21:30;;;;;;;27.98;5.45;;;16.90;64.80;;;;;;4188701;28;20067;-52
2024/01/23 07:24:11;;;;;;;19.23;4.85;;;16.80;65.00;;;;;;4205994;27;20100;-51
2024/01/23 07:26:53;;;;;;;18.83;4.65;;;16.80;65.10;;;;;;4221482;27;20050;-51
2024/01/23 07:29:35;;;;;;;22.88;5.38;;;16.70;65.30;;;;;;4205464;28;20066;-49
2024/01/23 07:32:17;;;;;;;21.33;4.72;;;16.70;65.40;;;;;;4203260;28;20485;-50
2024/01/23 07:34:58;;;;;;;20.42;5.63;;;16.60;65.50;;;;;;4204309;28;20415;-45
2024/01/23 07:37:39;;;;;;;19.02;4.30;;;16.50;65.60;;;;;;4204140;28;20078;-44
2024/01/23 07:40:20;;;;;;;21.52;4.15;;;16.50;65.30;;;;;;4204462;28;20422;-48
2024/01/23 07:43:01;;;;;;;23.17;4.90;;;16.40;64.50;;;;;;4203997;28;20121;-49
2024/01/23 07:45:42;;;;;;;22.17;5.00;;;16.50;63.80;;;;;;4208081;27;20097;-51
2024/01/23 07:48:27;;;;;;;21.58;4.32;;;16.50;63.00;;;;;;4204534;28;20067;-51
2024/01/23 07:51:08;;;;;;;26.42;4.18;;;16.60;62.20;;;;;;4204163;28;20059;-48
2024/01/23 07:53:50;;;;;;;21.17;5.25;;;16.60;61.50;;;;;;4203812;28;20046;-47
2024/01/23 07:56:31;;;;;;;24.23;4.30;;;16.70;61.10;;;;;;4201806;28;20081;-49
2024/01/23 07:59:13;;;;;;;22.48;4.47;;;16.80;60.60;;;;;;4209802;27;20047;-48
2024/01/23 08:01:54;;;;;;;21.38;5.03;;;16.80;59.70;;;;;;4204348;28;20089;-49
2024/01/23 08:04:37;;;;;;;25.08;5.18;;;16.90;59.40;;;;;;4206283;27;20046;-49
2024/01/23 08:07:18;;;;;;;22.20;5.30;;;16.90;59.10;;;;;;4198515;28;20837;-51
2024/01/23 08:09:59;;;;;;;;;;;16.90;58.90;;;;;;4204450;28;20182;-50
2024/01/23 08:12:40;;;;;;;27.25;5.63;;;16.90;59.00;;;;;;4215053;27;20432;-47
2024/01/23 08:15:23;;;;;;;19.55;4.72;;;17.00;59.00;;;;;;4213537;27;20442;-49
2024/01/23 08:18:06;;;;;;;21.27;4.53;;;17.00;58.80;;;;;;4204275;28;20177;-50
2024/01/23 08:20:48;;;;;;;13.13;4.13;;;16.90;58.70;;;;;;4204043;28;20237;-51
2024/01/23 08:23:29;;;;;;;18.25;4.40;;;17.00;58.60;;;;;;4203679;28;20051;-47
2024/01/23 08:26:10;;;;;;;19.30;3.83;;;17.00;58.50;;;;;;4204081;28;20490;-48
2024/01/23 08:28:56;;;;;;;19.77;4.53;;;17.00;58.10;;;;;;4213476;27;20407;-50
2024/01/23 08:31:37;;;;;;;16.00;4.55;;;16.90;58.00;;;;;;4192273;27;20196;-48
2024/01/23 08:34:18;;;;;;;11.27;3.15;;;16.90;58.10;;;;;;4197370;27;20051;-51
2024/01/23 08:37:00;;;;;;;18.33;4.70;;;16.80;58.20;;;;;;4207534;27;20055;-51
2024/01/23 08:39:42;;;;;;;19.40;4.68;;;16.80;58.40;;;;;;4222909;27;20058;-49
2024/01/23 08:42:23;;;;;;;20.25;4.07;;;16.80;58.50;;;;;;4224004;27;20115;-51
2024/01/23 08:45:05;;;;;;;20.58;4.25;;;16.80;58.50;;;;;;4213087;27;20077;-48
2024/01/23 08:47:46;;;;;;;17.10;4.55;;;16.80;58.50;;;;;;4206637;28;20178;-50
2024/01/23 08:50:28;;;;;;;22.33;4.80;;;16.70;58.30;;;;;;4206650;28;20100;-49
2024/01/23 08:53:10;;;;;;;18.33;4.90;;;16.60;58.30;;;;;;4205596;27;20086;-50
2024/01/23 08:55:51;;;;;;;17.80;4.47;;;16.60;58.40;;;;;;4207037;28;20051;-49
2024/01/23 08:58:32;;;;;;;23.58;5.07;;;16.60;58.50;;;;;;4207560;27;20055;-49
2024/01/23 09:01:13;;;;;;;19.55;5.03;;;16.60;58.50;;;;;;4206942;28;20548;-51
2024/01/23 09:03:54;;;;;;;17.38;4.53;;;16.60;58.30;;;;;;4208397;27;20039;-51
2024/01/23 09:06:35;;;;;;;19.05;4.60;;;16.60;58.90;;;;;;4221897;27;20061;-51
2024/01/23 09:09:18;;;;;;;16.88;4.40;;;16.60;57.90;;;;;;4210768;27;20054;-51
2024/01/23 09:11:59;;;;;;;20.60;4.82;;;16.70;57.80;;;;;;4222208;27;20054;-50
2024/01/23 09:14:40;;;;;;;14.25;4.05;;;16.70;57.80;;;;;;4206167;27;20051;-48
2024/01/23 09:17:21;;;;;;;21.90;4.45;;;16.60;57.80;;;;;;4221601;27;20050;-48
2024/01/23 09:20:06;;;;;;;19.67;4.38;;;16.60;57.80;;;;;;4216465;27;20395;-49
2024/01/23 09:22:47;;;;;;;18.10;4.88;;;16.60;58.00;;;;;;4206471;28;20257;-50
2024/01/23 09:25:29;;;;;;;22.83;4.00;;;16.50;58.00;;;;;;4206267;28;20062;-48
2024/01/23 09:28:11;;;;;;;19.52;4.05;;;16.50;58.10;;;;;;4205556;28;20407;-49
2024/01/23 09:30:52;;;;;;;24.02;5.38;;;16.60;58.00;;;;;;4205989;28;20050;-48
2024/01/23 09:33:33;;;;;;;21.70;4.05;;;16.60;57.80;;;;;;4204794;28;20078;-51
2024/01/23 09:36:15;;;;;;;18.08;4.00;;;16.60;57.70;;;;;;4193278;27;20093;-48
2024/01/23 09:38:56;;;;;;;19.92;4.30;;;16.70;57.80;;;;;;4199515;27;20063;-61
2024/01/23 09:41:39;;;;;;;16.33;4.22;;;16.60;57.60;;;;;;4195319;27;20074;-62
2024/01/23 09:44:21;;;;;;;17.67;3.63;;;16.70;57.60;;;;;;4195868;28;20047;-50
2024/01/23 09:47:04;;;;;;;22.00;4.35;;;16.70;57.50;;;;;;4204311;28;20129;-48
2024/01/23 09:49:46;;;;;;;16.92;4.97;;;16.70;57.30;;;;;;4187901;28;20586;-49
2024/01/23 09:52:28;;;;;;;14.82;4.05;;;16.70;57.10;;;;;;4203024;28;20399;-50
2024/01/23 09:55:10;;;;;;;16.05;2.83;;;16.80;57.20;;;;;;4213321;27;20186;-49
2024/01/23 09:57:52;;;;;;;;;;;16.70;57.10;;;;;;4206425;27;20089;-50
2024/01/23 10:00:33;;;;;;;17.52;4.75;;;16.70;57.40;;;;;;4205848;28;19927;-48
2024/01/23 10:03:15;;;;;;;25.83;4.75;;;16.60;57.40;;;;;;4211982;27;20059;-51
2024/01/23 10:05:56;;;;;;;18.90;4.45;;;16.50;57.50;;;;;;4205706;28;20051;-52
2024/01/23 10:08:37;;;;;;;14.20;4.32;;;16.40;57.80;;;;;;4205837;28;20085;-51
2024/01/23 10:11:18;;;;;;;11.30;3.25;;;16.30;58.00;;;;;;4208266;27;20070;-50
2024/01/23 10:14:02;;;;;;;17.17;3.42;;;16.30;58.30;;;;;;4209388;28;20059;-49
2024/01/23 10:16:42;;;;;;;19.02;4.82;;;16.30;58.30;;;;;;4222027;27;20062;-52
2024/01/23 10:19:24;;;;;;;23.27;5.70;;;16.30;58.20;;;;;;4221193;27;20054;-61
2024/01/23 10:22:05;;;;;;;21.63;4.43;;;16.40;58.20;;;;;;4212354;27;20055;-61
2024/01/23 10:24:46;;;;;;;20.85;5.00;;;16.40;58.10;;;;;;4210373;27;20050;-60
2024/01/23 10:27:30;;;;;;;20.23;4.13;;;16.40;58.00;;;;;;4212410;27;20054;-60
2024/01/23 10:30:13;;;;;;;21.80;4.80;;;16.30;57.90;;;;;;4222530;27;20054;-61
2024/01/23 10:32:54;;;;;;;13.60;3.40;;;16.40;58.10;;;;;;4220576;27;20201;-61
2024/01/23 10:35:38;;;;;;;17.58;3.53;;;16.40;58.00;;;;;;4227272;27;20554;-60
2024/01/23 10:38:19;;;;;;;17.52;4.43;;;16.40;57.90;;;;;;4239927;27;20089;-60
2024/01/23 10:41:01;;;;;;;16.63;3.78;;;16.40;57.70;;;;;;4232092;27;20053;-60
2024/01/23 10:43:42;;;;;;;18.25;5.40;;;16.40;57.80;;;;;;4227348;27;20066;-60
2024/01/23 10:46:25;;;;;;;15.60;4.20;;;16.40;57.80;;;;;;4209307;27;20189;-60
2024/01/23 10:49:07;;;;;;;19.45;4.47;;;16.40;57.80;;;;;;4197499;27;20055;-60
2024/01/23 10:51:51;;;;;;;16.75;3.75;;;16.40;57.70;;;;;;4218597;27;20050;-60
2024/01/23 10:54:33;;;;;;;16.75;3.85;;;16.40;57.70;;;;;;4210797;27;20388;-52
2024/01/23 10:57:22;;;;;;;17.05;4.05;;;16.40;57.80;;;;;;4204355;27;20093;-51
2024/01/23 11:00:04;;;;;;;18.33;4.75;;;16.40;57.60;;;;;;4188787;27;20043;-51
2024/01/23 11:02:53;;;;;;;17.73;3.97;;;16.40;57.60;;;;;;4187060;28;20055;-52
2024/01/23 11:05:42;;;;;;;23.92;4.60;;;16.30;57.50;;;;;;4189164;27;20047;-51
2024/01/23 11:08:28;;;;;;;18.42;4.07;;;16.40;57.50;;;;;;4211969;27;20053;-49
2024/01/23 11:11:17;;;;;;;8.05;2.17;;;16.30;57.50;;;;;;4215092;27;20088;-48
2024/01/23 11:14:04;;;;;;;21.45;4.05;;;16.30;57.70;;;;;;4212704;27;20063;-50
2024/01/23 11:17:03;;;;;;;12.55;3.40;;;16.20;57.80;;;;;;4204933;28;20051;-51
2024/01/23 11:19:47;;;;;;;17.25;3.88;;;16.10;58.00;;;;;;4204134;28;20054;-52
2024/01/23 11:22:29;;;;;;;21.05;5.18;;;16.10;58.40;;;;;;4188265;28;20101;-51
2024/01/23 11:25:10;;;;;;;23.80;4.10;;;16.00;58.50;;;;;;4188044;28;20059;-49
2024/01/23 11:27:53;;;;;;;15.98;3.63;;;16.00;58.60;;;;;;4189392;27;20075;-52
2024/01/23 11:30:34;;;;;;;22.30;4.07;;;16.00;58.70;;;;;;4197389;27;20050;-51
2024/01/23 11:33:25;;;;;;;13.98;3.65;;;16.00;58.50;;;;;;4220978;27;20075;-52
2024/01/23 11:36:12;;;;;;;22.02;4.05;;;16.00;58.40;;;;;;4205768;27;20050;-49
2024/01/23 11:38:56;;;;;;;15.77;4.00;;;16.00;58.30;;;;;;4204340;28;20228;-50
2024/01/23 11:41:38;;;;;;;16.85;4.18;;;16.00;58.40;;;;;;4220034;27;20056;-50
2024/01/23 11:44:21;;;;;;;24.73;4.97;;;15.90;58.40;;;;;;4205011;28;20071;-50
2024/01/23 11:47:03;;;;;;;16.10;3.85;;;16.00;59.20;;;;;;4208228;27;20391;-49
2024/01/23 11:49:47;;;;;;;11.02;3.80;;;16.00;58.40;;;;;;4220756;27;20058;-52
2024/01/23 11:52:30;;;;;;;16.40;3.72;;;16.10;58.90;;;;;;4211500;27;20124;-60
2024/01/23 11:55:11;;;;;;;14.57;3.65;;;16.10;57.90;;;;;;4203164;28;20059;-59
2024/01/23 11:57:53;;;;;;;15.80;3.13;;;16.20;57.70;;;;;;4208801;27;20600;-60
2024/01/23 12:00:35;;;;;;;16.38;3.53;;;16.20;57.60;;;;;;4203510;27;20563;-60
2024/01/23 12:03:20;;;;;;;19.00;2.67;;;16.10;57.50;;;;;;4220204;27;20115;-52
2024/01/23 12:06:03;;;;;;;18.50;4.07;;;16.10;57.50;;;;;;4220351;27;20051;-50
2024/01/23 12:08:46;;;;;;;18.73;3.90;;;16.10;58.40;;;;;;4220668;27;20101;-50
2024/01/23 12:11:29;;;;;;;22.58;4.78;;;16.00;57.60;;;;;;4219639;27;20054;-59
2024/01/23 12:14:10;;;;;;;17.05;4.53;;;15.90;57.70;;;;;;4186989;28;20060;-52
2024/01/23 12:17:03;;;;;;;15.80;2.65;;;15.90;57.70;;;;;;4187026;28;20186;-53
2024/01/23 12:19:48;;;;;;;7.32;2.75;;;15.80;57.80;;;;;;4187863;27;20054;-52
2024/01/23 12:22:29;;;;;;;24.88;3.97;;;15.80;57.90;;;;;;4181794;27;20059;-47
2024/01/23 12:25:13;;;;;;;17.83;4.13;;;15.80;58.40;;;;;;4193092;28;20055;-46
2024/01/23 12:27:54;;;;;;;17.90;4.03;;;15.70;58.80;;;;;;4186895;27;20048;-46
2024/01/23 12:30:35;;;;;;;5.43;1.67;;;15.70;59.00;;;;;;4186937;27;20063;-45
2024/01/23 12:33:17;;;;;;;21.35;3.95;;;15.60;59.20;;;;;;4201444;28;20213;-58
2024/01/23 12:36:01;;;;;;;15.88;3.25;;;15.60;59.20;;;;;;4220226;27;20181;-54
2024/01/23 12:38:42;;;;;;;18.27;3.85;;;15.50;59.30;;;;;;4215463;27;20059;-57
2024/01/23 12:41:25;;;;;;;17.48;4.20;;;15.50;59.40;;;;;;4203504;28;20055;-56
2024/01/23 12:44:06;;;;;;;12.13;2.70;;;15.50;59.40;;;;;;4203624;27;20059;-57
2024/01/23 12:46:47;;;;;;;13.52;3.88;;;15.40;59.50;;;;;;4203298;28;20047;-57
2024/01/23 12:49:28;;;;;;;24.73;3.97;;;15.40;59.70;;;;;;4232691;27;20082;-45
2024/01/23 12:52:16;;;;;;;22.25;3.90;;;15.40;59.30;;;;;;4228834;27;20066;-46
2024/01/23 12:54:57;;;;;;;16.60;3.67;;;15.30;60.00;;;;;;4236340;27;20528;-49
2024/01/23 12:57:39;;;;;;;18.98;3.58;;;15.30;60.10;;;;;;4202875;27;20059;-46
2024/01/23 13:00:21;;;;;;;15.45;3.70;;;15.30;60.30;;;;;;4203945;28;20098;-46
2024/01/23 13:03:04;;;;;;;21.13;4.57;;;15.30;60.20;;;;;;4203628;28;20521;-45
2024/01/23 13:05:45;;;;;;;17.92;4.43;;;15.20;60.10;;;;;;4221512;27;20050;-45
2024/01/23 13:08:26;;;;;;;12.63;3.20;;;15.20;60.20;;;;;;4200878;27;20146;-45
2024/01/23 13:11:07;;;;;;;13.23;3.47;;;15.20;60.20;;;;;;4212144;27;20054;-45
2024/01/23 13:13:50;;;;;;;13.82;3.28;;;15.20;60.30;;;;;;4201611;28;20059;-45
2024/01/23 13:16:32;;;;;;;19.83;3.88;;;15.10;60.20;;;;;;4201936;28;20105;-57
2024/01/23 13:19:13;;;;;;;7.18;2.00;;;15.10;60.20;;;;;;4211629;27;20054;-57
2024/01/23 13:21:55;;;;;;;14.48;3.60;;;15.10;60.30;;;;;;4211312;27;20081;-57
2024/01/23 13:24:36;;;;;;;;;;;15.00;60.30;;;;;;4222335;27;20054;-58
2024/01/23 13:27:17;;;;;;;19.73;4.80;;;15.00;60.20;;;;;;4222750;27;20377;-59
2024/01/23 13:29:59;;;;;;;24.35;4.05;;;15.00;60.40;;;;;;4226731;27;20058;-59
2024/01/23 13:32:40;;;;;;;19.52;4.30;;;14.90;61.40;;;;;;4202448;27;20803;-59
2024/01/23 13:35:21;;;;;;;21.48;4.97;;;14.90;60.60;;;;;;4205519;28;20055;-59
2024/01/23 13:38:03;;;;;;;17.27;3.63;;;14.90;60.80;;;;;;4214024;27;20058;-46
2024/01/23 13:40:44;;;;;;;;;;;14.90;61.10;;;;;;4222811;27;20185;-47
2024/01/23 13:43:25;;;;;;;21.10;3.63;;;14.90;61.40;;;;;;4221887;27;19927;-48
2024/01/23 13:46:07;;;;;;;22.08;4.15;;;14.80;61.70;;;;;;4204715;28;20117;-47
2024/01/23 13:48:48;;;;;;;20.30;6.10;;;14.80;61.80;;;;;;4206381;28;20070;-48
2024/01/23 13:51:30;;;;;;;20.38;3.95;;;14.70;61.90;;;;;;4215244;27;20509;-51
2024/01/23 13:54:11;;;;;;;23.80;4.78;;;14.70;62.10;;;;;;4213932;27;20414;-47
2024/01/23 13:56:52;;;;;;;18.67;4.50;;;14.70;62.30;;;;;;4206671;27;20093;-47